This is the latest recevied weather packets stored in our database for station/object VA2CPJ. If no packets are shown the sender has not sent any weather packets the latest 10 day(s).
| Time | Temp. | Humidity | Pressure | Rain* | Wind** | Luminosity | Snow |
|---|---|---|---|---|---|---|---|
| 1777883721 | 0.56° C | 77% | 1014.3 hPa | - | - | 0 W/m² | - |
| 1777882820 | 0.56° C | 77% | 1013.7 hPa | - | - | 0 W/m² | - |
| 1777881659 | 0.56° C | 77% | 1013.7 hPa | - | - | 0 W/m² | - |
| 1777881344 | 0.56° C | 77% | 1014.3 hPa | - | - | 0 W/m² | - |
| 1777879243 | 1.11° C | 75% | 1014 hPa | - | - | 0 W/m² | - |
| 1777878033 | 1.67° C | 73% | 1013.7 hPa | - | - | 0 W/m² | - |
| 1777877123 | 1.67° C | 73% | 1014.7 hPa | - | - | 0 W/m² | - |
| 1777876222 | 1.67° C | 73% | 1014 hPa | - | - | 0 W/m² | - |
| 1777875944 | 1.67° C | 73% | 1014.7 hPa | - | - | 0 W/m² | - |
| 1777875330 | 1.67° C | 73% | 1015 hPa | - | - | 0 W/m² | - |
| 1777873527 | 3.33° C | 67% | 1014.7 hPa | - | - | 0 W/m² | - |
| 1777872984 | 3.33° C | 68% | 1014.7 hPa | - | - | 0 W/m² | - |
| 1777871138 | 3.89° C | 64% | 1015 hPa | - | - | 0 W/m² | - |
| 1777869966 | 3.89° C | 61% | 1015 hPa | - | - | 0 W/m² | - |
| 1777868723 | 4.44° C | 64% | 1015.4 hPa | - | - | 0 W/m² | - |
| 1777868426 | 4.44° C | 64% | 1014.7 hPa | - | - | 0 W/m² | - |
| 1777867525 | 4.44° C | 65% | 1015.4 hPa | - | - | 0 W/m² | - |
| 1777865424 | 5.56° C | 60% | 1014.7 hPa | - | - | 0 W/m² | - |
| 1777865145 | 5.56° C | 59% | 1015.4 hPa | - | - | 0 W/m² | - |
| 1777864873 | 5.56° C | 59% | 1014.7 hPa | - | - | 0 W/m² | - |
| 1777864234 | 5° C | 61% | 1014.7 hPa | - | - | 0 W/m² | - |
| 1777859154 | 6.11° C | 53% | 1015.4 hPa | - | - | 0 W/m² | - |
| 1777858520 | 6.11° C | 51% | 1015.4 hPa | - | - | 0 W/m² | - |
| 1777858293 | 6.11° C | 51% | 1014.3 hPa | - | - | 0 W/m² | - |
| 1777856148 | 6.11° C | 48% | 1015.4 hPa | - | - | 0 W/m² | - |
* Rain since midnight (hover to see other rain measurements)
** Current wind speed in m/s (hover to see current wind gust speed)